Terminal Aerodrome Forecast
Issued by NWS Quad Cities IA IL

Home | Current Version | Previous Version | Text Only | Print | Product List | Glossary On
Versions: 1 2 3 4 5 6 7 8 9 10 11 12 13 14 15 16 17 18 19 20
000
FTUS43 KDVN 240059 AAA
TAFMLI
TAF AMD
KMLI 240059Z 2401/2424 15009KT P6SM VCTS BKN025CB
     FM240300 15005KT P6SM BKN250
     FM240900 16004KT 5SM BR BKN250
     FM241500 23010KT P6SM BKN150
     FM242000 26008KT P6SM BKN040=

USA.gov is the U.S. government's official web portal to all federal, state and local government web resources and services.